createdAt,value
2019-05-29T00:02:19.939Z,101481.02
2019-05-29T00:04:50.228Z,101489.95
2019-05-29T00:07:20.602Z,101494.91
2019-05-29T00:09:50.879Z,101497.94
2019-05-29T00:12:21.305Z,101498.13
2019-05-29T00:14:51.786Z,101502.92
2019-05-29T00:17:22.025Z,101504.37
2019-05-29T00:19:52.308Z,101506.38
2019-05-29T00:22:22.848Z,101507.00
2019-05-29T00:24:53.111Z,101507.78
2019-05-29T00:27:24.051Z,101513.22
2019-05-29T00:29:54.347Z,101521.04
2019-05-29T00:32:24.778Z,101516.95
2019-05-29T00:34:55.140Z,101516.95
2019-05-29T00:37:25.746Z,101530.11
2019-05-29T00:39:56.257Z,101524.78
2019-05-29T00:42:31.923Z,101533.31
2019-05-29T00:45:09.341Z,101535.30
2019-05-29T00:47:40.117Z,101533.53
2019-05-29T00:50:12.289Z,101536.64
2019-05-29T00:52:42.707Z,101538.36
2019-05-29T00:55:13.217Z,101541.23
2019-05-29T00:57:43.478Z,101539.25
2019-05-29T01:00:17.476Z,101539.25
2019-05-29T01:02:48.107Z,101546.73
2019-05-29T01:05:18.538Z,101548.02
2019-05-29T01:07:49.232Z,101548.44
2019-05-29T01:10:20.818Z,101558.38
2019-05-29T01:12:52.478Z,101552.00
2019-05-29T01:15:23.103Z,101558.30
2019-05-29T01:17:53.771Z,101564.29
2019-05-29T01:20:24.035Z,101565.95
2019-05-29T01:22:55.548Z,101567.40
2019-05-29T01:25:26.076Z,101567.79
2019-05-29T01:27:56.409Z,101574.77
2019-05-29T01:30:26.987Z,101578.27
2019-05-29T01:32:57.707Z,101572.86
2019-05-29T01:35:28.008Z,101572.36
2019-05-29T01:37:58.247Z,101578.72
2019-05-29T01:40:29.697Z,101581.16
2019-05-29T01:43:00.158Z,101594.44
2019-05-29T01:45:30.772Z,101591.55
2019-05-29T01:48:01.274Z,101599.83
2019-05-29T01:50:31.866Z,101596.26
2019-05-29T01:53:02.171Z,101605.70
2019-05-29T01:55:33.855Z,101606.05
2019-05-29T01:58:04.352Z,101607.29
2019-05-29T02:00:35.241Z,101606.33
2019-05-29T02:03:05.509Z,101612.59
2019-05-29T02:05:36.434Z,101616.83
2019-05-29T02:08:06.854Z,101614.88
2019-05-29T02:10:37.365Z,101615.80
2019-05-29T02:13:07.643Z,101626.19
2019-05-29T02:15:37.982Z,101624.58
2019-05-29T02:18:08.540Z,101628.22
2019-05-29T02:20:38.986Z,101625.95
2019-05-29T02:23:09.572Z,101631.28
2019-05-29T02:25:39.860Z,101635.56
2019-05-29T02:28:10.525Z,101640.28
2019-05-29T02:30:40.831Z,101643.14
2019-05-29T02:33:11.790Z,101644.72
2019-05-29T02:35:42.085Z,101645.11
2019-05-29T02:38:13.118Z,101646.37
2019-05-29T02:40:43.418Z,101643.02
2019-05-29T02:43:14.984Z,101644.19
2019-05-29T02:45:54.423Z,101644.00
2019-05-29T02:48:17.941Z,101641.64
2019-05-29T02:50:48.223Z,101642.31
2019-05-29T02:53:19.937Z,101644.33
2019-05-29T02:55:50.691Z,101650.02
2019-05-29T02:58:23.546Z,101655.93
2019-05-29T03:00:57.717Z,101656.81
2019-05-29T03:03:31.675Z,101657.78
2019-05-29T03:06:00.933Z,101654.27
2019-05-29T03:08:34.244Z,101656.94
2019-05-29T03:11:05.211Z,101654.36
2019-05-29T03:13:35.904Z,101658.48
2019-05-29T03:16:11.227Z,101662.88
2019-05-29T03:18:39.977Z,101674.45
2019-05-29T03:21:10.532Z,101677.31
2019-05-29T03:23:40.835Z,101677.31
2019-05-29T03:26:11.399Z,101683.55
2019-05-29T03:28:41.669Z,101681.90
2019-05-29T03:31:11.949Z,101696.00
2019-05-29T03:33:49.224Z,101692.38
2019-05-29T03:36:14.619Z,101697.45
2019-05-29T03:38:45.024Z,101696.30
2019-05-29T03:41:15.633Z,101700.08
2019-05-29T03:43:45.916Z,101705.95
2019-05-29T03:46:29.982Z,101710.05
2019-05-29T03:48:49.761Z,101708.48
2019-05-29T03:51:20.158Z,101704.16
2019-05-29T03:53:50.463Z,101699.23
2019-05-29T03:56:23.168Z,101707.44
2019-05-29T03:58:53.463Z,101707.44
2019-05-29T04:01:26.686Z,101708.64
2019-05-29T04:03:57.189Z,101712.95
2019-05-29T04:06:29.081Z,101714.42
2019-05-29T04:08:59.527Z,101715.56
2019-05-29T04:11:31.422Z,101719.59
2019-05-29T04:14:01.885Z,101729.91
2019-05-29T04:16:55.281Z,101728.98
2019-05-29T04:19:06.150Z,101738.16
2019-05-29T04:21:38.670Z,101729.94
2019-05-29T04:24:09.205Z,101729.94
2019-05-29T04:26:41.366Z,101735.45
2019-05-29T04:29:11.678Z,101741.72
2019-05-29T04:31:43.684Z,101748.11
2019-05-29T04:34:14.288Z,101741.98
2019-05-29T04:36:44.995Z,101740.44
2019-05-29T04:39:15.677Z,101747.25
2019-05-29T04:41:45.956Z,101756.56
2019-05-29T04:44:16.570Z,101757.92
2019-05-29T04:46:46.866Z,101757.92
2019-05-29T04:49:20.168Z,101766.82
2019-05-29T04:51:49.508Z,101765.57
2019-05-29T04:54:19.819Z,101770.77
2019-05-29T04:56:50.367Z,101768.77
2019-05-29T04:59:22.205Z,101772.84
2019-05-29T05:01:52.844Z,101772.14
2019-05-29T05:04:24.342Z,101786.25
2019-05-29T05:06:54.683Z,101785.22
2019-05-29T05:09:25.305Z,101793.08
2019-05-29T05:11:56.300Z,101792.77
2019-05-29T05:14:29.607Z,101793.66
2019-05-29T05:17:00.155Z,101787.77
2019-05-29T05:19:31.745Z,101796.53
2019-05-29T05:22:03.505Z,101799.75
2019-05-29T05:24:34.190Z,101801.30
2019-05-29T05:27:04.830Z,101806.92
2019-05-29T05:29:36.268Z,101805.42
2019-05-29T05:32:07.258Z,101808.21
2019-05-29T05:34:38.705Z,101813.27
2019-05-29T05:37:11.022Z,101804.59
2019-05-29T05:39:41.557Z,101808.34
2019-05-29T05:42:11.979Z,101812.77
2019-05-29T05:44:42.517Z,101807.91
2019-05-29T05:47:14.537Z,101820.85
2019-05-29T05:49:44.868Z,101817.29
2019-05-29T05:52:15.171Z,101815.12
2019-05-29T05:54:45.494Z,101819.47
2019-05-29T05:57:18.486Z,101824.17
2019-05-29T05:59:49.032Z,101827.02
2019-05-29T06:02:20.551Z,101830.73
2019-05-29T06:04:50.849Z,101831.80
2019-05-29T06:07:23.012Z,101837.29
2019-05-29T06:09:53.480Z,101835.61
2019-05-29T06:12:24.283Z,101842.30
2019-05-29T06:14:54.580Z,101838.16
2019-05-29T06:17:25.154Z,101839.89
2019-05-29T06:19:55.423Z,101836.20
2019-05-29T06:22:25.970Z,101841.49
2019-05-29T06:24:56.468Z,101838.09
2019-05-29T06:27:26.849Z,101840.20
2019-05-29T06:29:57.251Z,101838.13
2019-05-29T06:32:28.250Z,101837.36
2019-05-29T06:34:59.070Z,101836.25
2019-05-29T06:37:29.691Z,101836.16
2019-05-29T06:40:00.341Z,101844.88
2019-05-29T06:42:31.147Z,101846.95
2019-05-29T06:45:02.739Z,101839.97
2019-05-29T06:47:34.252Z,101843.13
2019-05-29T06:50:05.489Z,101839.87
2019-05-29T06:52:37.386Z,101838.25
2019-05-29T06:55:08.808Z,101841.97
2019-05-29T06:57:40.251Z,101848.47
2019-05-29T07:00:10.862Z,101856.17
2019-05-29T07:02:42.642Z,101856.70
2019-05-29T07:05:13.351Z,101864.56
2019-05-29T07:07:44.525Z,101860.36
2019-05-29T07:10:16.673Z,101867.95
2019-05-29T07:12:47.233Z,101863.53
2019-05-29T07:15:19.893Z,101873.28
2019-05-29T07:17:51.112Z,101872.45
2019-05-29T07:20:24.099Z,101870.33
2019-05-29T07:22:54.582Z,101868.14
2019-05-29T07:25:25.211Z,101875.88
2019-05-29T07:27:56.206Z,101872.11
2019-05-29T07:30:26.653Z,101876.76
2019-05-29T07:32:59.062Z,101860.44
2019-05-29T07:35:29.446Z,101845.95
2019-05-29T07:38:00.076Z,101841.48
2019-05-29T07:40:30.710Z,101839.64
2019-05-29T07:43:02.736Z,101838.09
2019-05-29T07:45:33.412Z,101824.38
2019-05-29T07:48:04.037Z,101824.80
2019-05-29T07:50:35.592Z,101825.06
2019-05-29T07:53:06.330Z,101822.46
2019-05-29T07:55:36.889Z,101819.23
2019-05-29T07:58:07.569Z,101816.10
2019-05-29T08:01:00.986Z,101812.02
2019-05-29T08:03:10.422Z,101818.54
2019-05-29T08:05:43.370Z,101811.34
2019-05-29T08:08:14.469Z,101812.92
2019-05-29T08:10:47.540Z,101809.98
2019-05-29T08:13:20.653Z,101808.05
2019-05-29T08:16:01.835Z,101815.47
2019-05-29T08:18:24.392Z,101812.73
2019-05-29T08:20:55.015Z,101810.11
2019-05-29T08:23:27.247Z,101808.04
2019-05-29T08:25:57.861Z,101803.94
2019-05-29T08:28:28.783Z,101803.83
2019-05-29T08:30:59.384Z,101808.43
2019-05-29T08:33:32.106Z,101818.36
2019-05-29T08:36:02.692Z,101812.47
2019-05-29T08:38:33.427Z,101814.95
2019-05-29T08:41:05.958Z,101809.67
2019-05-29T08:43:36.301Z,101805.88
2019-05-29T08:46:06.963Z,101816.98
2019-05-29T08:48:37.582Z,101816.58
2019-05-29T08:51:08.479Z,101808.57
2019-05-29T08:53:39.065Z,101815.11
2019-05-29T08:56:09.899Z,101808.31
2019-05-29T08:58:42.769Z,101814.89
2019-05-29T09:01:13.245Z,101807.47
2019-05-29T09:03:44.886Z,101809.98
2019-05-29T09:06:15.428Z,101807.55
2019-05-29T09:08:47.694Z,101807.55
2019-05-29T09:11:18.255Z,101816.23
2019-05-29T09:13:48.804Z,101803.21
2019-05-29T09:16:19.151Z,101816.44
2019-05-29T09:18:50.897Z,101813.37
2019-05-29T09:21:21.239Z,101810.63
2019-05-29T09:23:52.187Z,101807.28
2019-05-29T09:26:25.482Z,101805.69
2019-05-29T09:28:54.877Z,101806.94
2019-05-29T09:31:26.244Z,101800.92
2019-05-29T09:33:57.102Z,101803.01
2019-05-29T09:36:27.670Z,101806.19
2019-05-29T09:38:59.373Z,101806.83
2019-05-29T09:41:29.827Z,101811.53
2019-05-29T09:44:00.497Z,101813.56
2019-05-29T09:46:34.042Z,101813.23
2019-05-29T09:49:04.714Z,101812.86
2019-05-29T09:51:36.675Z,101810.06
2019-05-29T09:54:07.221Z,101807.55
2019-05-29T09:56:39.228Z,101804.62
2019-05-29T09:59:09.852Z,101811.01
2019-05-29T10:01:40.583Z,101810.02
2019-05-29T10:04:11.217Z,101811.70
2019-05-29T10:06:41.851Z,101823.44
2019-05-29T10:09:12.130Z,101819.91
2019-05-29T10:11:42.743Z,101817.27
2019-05-29T10:14:13.343Z,101809.26
2019-05-29T10:16:44.018Z,101811.08
2019-05-29T10:19:15.477Z,101816.84
2019-05-29T10:21:46.055Z,101817.27
2019-05-29T10:24:16.819Z,101823.77
2019-05-29T10:26:47.410Z,101817.17
2019-05-29T10:29:18.306Z,101814.02
2019-05-29T10:31:49.808Z,101820.37
2019-05-29T10:34:21.284Z,101810.91
2019-05-29T10:36:53.602Z,101797.97
2019-05-29T10:39:23.928Z,101805.42
2019-05-29T10:41:56.175Z,101805.56
2019-05-29T10:44:27.168Z,101807.69
2019-05-29T10:46:57.696Z,101804.17
2019-05-29T10:49:28.323Z,101804.37
2019-05-29T10:52:13.671Z,101795.80
2019-05-29T10:54:31.250Z,101801.31
2019-05-29T10:57:01.720Z,101801.24
2019-05-29T10:59:32.482Z,101793.02
2019-05-29T11:02:03.231Z,101796.05
2019-05-29T11:04:33.916Z,101803.05
2019-05-29T11:07:04.230Z,101788.83
2019-05-29T11:09:43.958Z,101788.83
2019-05-29T11:12:07.102Z,101788.26
2019-05-29T11:14:37.772Z,101789.20
2019-05-29T11:17:09.450Z,101783.73
2019-05-29T11:19:40.386Z,101785.69
2019-05-29T11:22:25.916Z,101786.55
2019-05-29T11:24:45.099Z,101789.82
2019-05-29T11:27:15.426Z,101777.44
2019-05-29T11:29:46.038Z,101786.79
2019-05-29T11:32:18.212Z,101789.62
2019-05-29T11:34:49.072Z,101780.30
2019-05-29T11:37:21.676Z,101781.76
2019-05-29T11:39:52.615Z,101780.05
2019-05-29T11:42:27.879Z,101783.95
2019-05-29T11:44:59.437Z,101788.03
2019-05-29T11:47:30.918Z,101781.09
2019-05-29T11:50:16.731Z,101791.69
2019-05-29T11:52:42.866Z,101796.63
2019-05-29T11:55:12.910Z,101806.11
2019-05-29T11:57:43.473Z,101800.13
2019-05-29T12:00:20.299Z,101816.95
2019-05-29T12:02:49.430Z,101813.84
2019-05-29T12:05:20.244Z,101794.65
2019-05-29T12:07:51.723Z,101777.45
2019-05-29T12:10:22.342Z,101776.31
2019-05-29T12:12:53.508Z,101775.17
2019-05-29T12:15:24.367Z,101783.82
2019-05-29T12:18:18.482Z,101785.61
2019-05-29T12:20:29.360Z,101784.36
2019-05-29T12:23:18.668Z,101786.52
2019-05-29T12:25:32.024Z,101775.80
2019-05-29T12:28:05.433Z,101775.80
2019-05-29T12:30:36.111Z,101781.25
2019-05-29T12:33:07.047Z,101772.84
2019-05-29T12:35:37.643Z,101782.80
2019-05-29T12:38:08.479Z,101783.87
2019-05-29T12:40:38.841Z,101788.30
2019-05-29T12:43:25.869Z,101792.86
2019-05-29T12:45:41.965Z,101803.80
2019-05-29T12:48:15.437Z,101800.20
2019-05-29T12:50:45.939Z,101805.49
2019-05-29T12:53:29.736Z,101803.97
2019-05-29T12:55:48.868Z,101801.95
2019-05-29T12:58:19.429Z,101790.98
2019-05-29T13:00:50.311Z,101791.73
2019-05-29T13:03:20.897Z,101784.11
2019-05-29T13:05:51.515Z,101779.84
2019-05-29T13:08:22.113Z,101778.18
2019-05-29T13:10:52.803Z,101773.42
2019-05-29T13:13:23.435Z,101782.02
2019-05-29T13:15:54.750Z,101775.38
2019-05-29T13:18:25.477Z,101775.38
2019-05-29T13:20:57.374Z,101773.03
2019-05-29T13:23:28.347Z,101770.49
2019-05-29T13:25:59.425Z,101766.08
2019-05-29T13:28:32.849Z,101764.84
2019-05-29T13:31:06.928Z,101759.39
2019-05-29T13:33:37.407Z,101771.70
2019-05-29T13:36:08.150Z,101765.27
2019-05-29T13:38:39.923Z,101757.31
2019-05-29T13:41:11.585Z,101751.61
2019-05-29T13:43:42.166Z,101751.73
2019-05-29T13:46:13.903Z,101749.64
2019-05-29T13:48:44.583Z,101752.94
2019-05-29T13:51:15.910Z,101746.02
2019-05-29T13:54:02.053Z,101742.75
2019-05-29T13:56:19.100Z,101741.36
2019-05-29T13:58:49.729Z,101742.73
2019-05-29T14:01:20.289Z,101738.52
2019-05-29T14:03:50.861Z,101749.41
2019-05-29T14:06:22.753Z,101747.43
2019-05-29T14:08:53.496Z,101745.64
2019-05-29T14:11:24.021Z,101751.67
2019-05-29T14:13:54.350Z,101756.28
2019-05-29T14:16:24.915Z,101753.10
2019-05-29T14:18:55.238Z,101753.10
2019-05-29T14:21:25.868Z,101752.56
2019-05-29T14:23:56.669Z,101743.88
2019-05-29T14:26:27.262Z,101752.73
2019-05-29T14:28:58.057Z,101755.86
2019-05-29T14:31:28.634Z,101753.23
2019-05-29T14:34:00.913Z,101748.42
2019-05-29T14:36:32.225Z,101750.98
2019-05-29T14:39:05.930Z,101749.23
2019-05-29T14:41:36.524Z,101741.47
2019-05-29T14:44:07.914Z,101754.94
2019-05-29T14:46:38.627Z,101747.55
2019-05-29T14:49:13.553Z,101751.02
2019-05-29T14:51:44.286Z,101749.73
2019-05-29T14:54:16.378Z,101752.77
2019-05-29T14:56:48.760Z,101751.04
2019-05-29T14:59:21.088Z,101744.11
2019-05-29T15:01:52.149Z,101748.87
2019-05-29T15:04:27.152Z,101748.42
2019-05-29T15:06:57.851Z,101747.95
2019-05-29T15:09:31.001Z,101746.58
2019-05-29T15:12:01.851Z,101746.98
2019-05-29T15:14:33.061Z,101750.39
2019-05-29T15:17:05.086Z,101750.06
2019-05-29T15:19:36.979Z,101745.39
2019-05-29T15:22:09.241Z,101750.61
2019-05-29T15:24:40.292Z,101747.16
2019-05-29T15:27:13.842Z,101749.31
2019-05-29T15:29:45.527Z,101755.44
2019-05-29T15:32:16.670Z,101757.17
2019-05-29T15:34:49.084Z,101748.03
2019-05-29T15:37:20.130Z,101739.76
2019-05-29T15:39:52.795Z,101744.98
2019-05-29T15:42:23.470Z,101747.16
2019-05-29T15:44:54.399Z,101758.05
2019-05-29T15:47:25.037Z,101749.36
2019-05-29T15:49:55.745Z,101750.22
2019-05-29T15:52:26.411Z,101747.60
2019-05-29T15:54:57.224Z,101751.97
2019-05-29T15:57:27.836Z,101751.97
2019-05-29T16:00:00.165Z,101751.51
2019-05-29T16:02:30.598Z,101754.14
2019-05-29T16:05:03.062Z,101743.69
2019-05-29T16:07:34.171Z,101743.69
2019-05-29T16:10:06.097Z,101750.22
2019-05-29T16:12:36.500Z,101748.02
2019-05-29T16:15:08.926Z,101745.39
2019-05-29T16:17:39.754Z,101741.44
2019-05-29T16:20:14.472Z,101737.52
2019-05-29T16:22:46.673Z,101733.16
2019-05-29T16:25:17.565Z,101733.88
2019-05-29T16:27:49.275Z,101733.88
2019-05-29T16:30:20.156Z,101733.48
2019-05-29T16:32:52.338Z,101725.70
2019-05-29T16:35:24.120Z,101717.02
2019-05-29T16:37:55.080Z,101732.18
2019-05-29T16:40:28.045Z,101722.20
2019-05-29T16:42:58.872Z,101721.70
2019-05-29T16:45:29.698Z,101724.25
2019-05-29T16:48:01.143Z,101724.30
2019-05-29T16:50:32.099Z,101719.56
2019-05-29T16:53:05.102Z,101720.42
2019-05-29T16:55:35.994Z,101718.26
2019-05-29T16:58:07.293Z,101716.92
2019-05-29T17:00:38.583Z,101711.72
2019-05-29T17:03:10.766Z,101716.94
2019-05-29T17:05:41.404Z,101718.68
2019-05-29T17:08:14.071Z,101717.74
2019-05-29T17:10:44.760Z,101718.59
2019-05-29T17:13:18.677Z,101720.30
2019-05-29T17:15:49.320Z,101723.73
2019-05-29T17:18:20.795Z,101723.30
2019-05-29T17:20:52.538Z,101726.28
2019-05-29T17:23:23.197Z,101716.25
2019-05-29T17:26:09.660Z,101716.25
2019-05-29T17:28:28.512Z,101720.13
2019-05-29T17:31:12.338Z,101719.20
2019-05-29T17:33:33.949Z,101719.20
2019-05-29T17:36:04.371Z,101722.21
2019-05-29T17:38:35.081Z,101723.48
2019-05-29T17:41:06.196Z,101727.80
2019-05-29T17:43:37.097Z,101721.27
2019-05-29T17:46:07.551Z,101720.37
2019-05-29T17:48:40.269Z,101724.70
2019-05-29T17:51:10.780Z,101728.13
2019-05-29T17:53:41.480Z,101734.52
2019-05-29T17:56:25.326Z,101733.98
2019-05-29T17:58:45.695Z,101736.52
2019-05-29T18:01:16.489Z,101741.23
2019-05-29T18:03:47.211Z,101745.05
2019-05-29T18:06:18.314Z,101751.05
2019-05-29T18:08:49.130Z,101747.55
2019-05-29T18:11:21.041Z,101755.73
2019-05-29T18:13:51.914Z,101754.81
2019-05-29T18:16:23.531Z,101752.15
2019-05-29T18:18:54.415Z,101749.06
2019-05-29T18:21:26.108Z,101752.04
2019-05-29T18:24:07.074Z,101757.12
2019-05-29T18:26:46.996Z,101757.12
2019-05-29T18:29:11.943Z,101761.36
2019-05-29T18:31:42.533Z,101755.13
2019-05-29T18:34:13.152Z,101747.60
2019-05-29T18:36:44.273Z,101747.55
2019-05-29T18:39:14.993Z,101752.20
2019-05-29T18:41:45.907Z,101745.63
2019-05-29T18:44:16.683Z,101748.59
2019-05-29T18:46:49.481Z,101750.26
2019-05-29T18:49:20.422Z,101745.77
2019-05-29T18:51:51.596Z,101745.77
2019-05-29T18:54:22.276Z,101743.11
2019-05-29T18:57:13.589Z,101746.03
2019-05-29T18:59:25.597Z,101745.56
2019-05-29T19:01:58.741Z,101750.70
2019-05-29T19:04:29.849Z,101748.94
2019-05-29T19:07:00.608Z,101753.61
2019-05-29T19:09:32.021Z,101757.21
2019-05-29T19:12:02.747Z,101755.64
2019-05-29T19:14:33.501Z,101754.59
2019-05-29T19:17:04.151Z,101751.77
2019-05-29T19:19:34.522Z,101760.53
2019-05-29T19:22:05.235Z,101758.53
2019-05-29T19:24:35.866Z,101764.20
2019-05-29T19:27:06.368Z,101767.42
2019-05-29T19:29:36.887Z,101768.92
2019-05-29T19:32:09.484Z,101769.11
2019-05-29T19:34:41.975Z,101778.66
2019-05-29T19:37:13.100Z,101778.33
2019-05-29T19:39:43.976Z,101779.47
2019-05-29T19:42:19.003Z,101778.77
2019-05-29T19:44:52.371Z,101781.34
2019-05-29T19:47:22.755Z,101786.77
2019-05-29T19:49:55.026Z,101799.47
2019-05-29T19:52:27.181Z,101795.58
2019-05-29T19:54:57.812Z,101801.16
2019-05-29T19:57:28.214Z,101797.20
2019-05-29T19:59:58.830Z,101806.02
2019-05-29T20:02:30.444Z,101802.22
2019-05-29T20:07:37.513Z,101804.34
2019-05-29T20:10:12.702Z,101811.11
2019-05-29T20:12:43.609Z,101808.12
2019-05-29T20:15:15.582Z,101811.52
2019-05-29T20:17:45.963Z,101810.84
2019-05-29T20:20:16.564Z,101820.06
2019-05-29T20:22:46.915Z,101822.21
2019-05-29T20:25:17.580Z,101818.96
2019-05-29T20:27:47.968Z,101827.27
2019-05-29T20:30:19.725Z,101831.26
2019-05-29T20:32:50.682Z,101828.33
2019-05-29T20:35:23.527Z,101826.45
2019-05-29T20:37:54.422Z,101827.91
2019-05-29T20:40:27.290Z,101821.57
2019-05-29T20:42:58.066Z,101826.73
2019-05-29T20:45:28.697Z,101824.75
2019-05-29T20:47:59.482Z,101821.08
2019-05-29T20:50:30.894Z,101817.67
2019-05-29T20:53:01.596Z,101827.29
2019-05-29T20:55:33.614Z,101821.76
2019-05-29T20:58:04.077Z,101821.26
2019-05-29T21:00:34.498Z,101818.36
2019-05-29T21:03:05.077Z,101819.96
2019-05-29T21:05:38.701Z,101823.39
2019-05-29T21:08:09.272Z,101820.63
2019-05-29T21:10:40.676Z,101821.14
2019-05-29T21:13:15.611Z,101827.05
2019-05-29T21:15:48.391Z,101831.13
2019-05-29T21:18:20.000Z,101830.89
2019-05-29T21:20:50.746Z,101831.80
2019-05-29T21:23:21.110Z,101836.78
2019-05-29T21:25:51.694Z,101833.49
2019-05-29T21:28:37.045Z,101832.14
2019-05-29T21:30:54.398Z,101831.73
2019-05-29T21:33:24.877Z,101827.36
2019-05-29T21:35:55.328Z,101827.13
2019-05-29T21:38:25.924Z,101829.77
2019-05-29T21:40:56.510Z,101830.27
2019-05-29T21:43:27.113Z,101827.75
2019-05-29T21:45:57.771Z,101829.69
2019-05-29T21:48:30.351Z,101825.23
2019-05-29T21:51:01.002Z,101831.13
2019-05-29T21:53:31.640Z,101827.27
2019-05-29T21:56:02.097Z,101833.23
2019-05-29T21:58:32.925Z,101836.91
2019-05-29T22:01:04.285Z,101835.59
2019-05-29T22:03:35.048Z,101833.89
2019-05-29T22:06:05.428Z,101833.41
2019-05-29T22:08:35.884Z,101830.95
2019-05-29T22:11:06.759Z,101830.96
2019-05-29T22:13:37.125Z,101828.09
2019-05-29T22:16:07.706Z,101826.18
2019-05-29T22:18:38.073Z,101827.72
2019-05-29T22:21:08.398Z,101826.95
2019-05-29T22:23:39.470Z,101821.17
2019-05-29T22:26:10.044Z,101822.34
2019-05-29T22:28:40.354Z,101824.55
2019-05-29T22:31:10.842Z,101820.36
2019-05-29T22:33:41.424Z,101817.83
2019-05-29T22:36:13.077Z,101815.77
2019-05-29T22:38:43.844Z,101823.97
2019-05-29T22:41:16.735Z,101818.45
2019-05-29T22:43:47.337Z,101821.51
2019-05-29T22:46:17.928Z,101821.36
2019-05-29T22:48:48.284Z,101819.63
2019-05-29T22:51:18.971Z,101817.77
2019-05-29T22:53:49.572Z,101814.62
2019-05-29T22:56:20.031Z,101812.87
2019-05-29T22:58:51.884Z,101814.00
2019-05-29T23:01:22.599Z,101810.78
2019-05-29T23:03:54.019Z,101810.64
2019-05-29T23:06:24.476Z,101810.27
2019-05-29T23:08:54.785Z,101805.59
2019-05-29T23:11:25.077Z,101813.31
2019-05-29T23:13:56.341Z,101807.78
2019-05-29T23:16:27.240Z,101806.53
2019-05-29T23:18:58.563Z,101805.75
2019-05-29T23:21:29.022Z,101806.22
2019-05-29T23:23:59.625Z,101811.89
2019-05-29T23:26:30.187Z,101803.27
2019-05-29T23:29:01.039Z,101802.36
2019-05-29T23:31:32.231Z,101806.80
2019-05-29T23:34:03.291Z,101804.53
2019-05-29T23:36:35.039Z,101807.98
2019-05-29T23:39:08.042Z,101802.83
2019-05-29T23:41:38.359Z,101801.58
2019-05-29T23:44:09.681Z,101803.27
2019-05-29T23:46:41.570Z,101805.03
2019-05-29T23:49:14.721Z,101802.93
2019-05-29T23:51:45.181Z,101803.84
2019-05-29T23:54:16.678Z,101805.23
2019-05-29T23:56:51.517Z,101800.48
2019-05-29T23:59:23.323Z,101802.18
